Time;durP1;ratioP1;P1;durP2;ratioP2;P2;SDS_P1;SDS_P2;PMS_P1;PMS_P2;Temp;Humidity;BMP_temperature;BMP_pressure;BME280_temperature;BME280_humidity;BME280_pressure;Samples;Min_cycle;Max_cycle;Signal;HPM_P1;HPM_P2
2022/04/30 00:01:41;;;;;;;0.20;0.20;;;;;;;;;;1843541;78;26336;-54
2022/04/30 00:04:08;;;;;;;0.20;0.20;;;;;;;;;;1844130;77;26266;-53
2022/04/30 00:06:35;;;;;;;0.20;0.20;;;;;;;;;;1844226;77;26292;-51
2022/04/30 00:09:03;;;;;;;0.20;0.20;;;;;;;;;;1843145;76;26351;-55
2022/04/30 00:11:30;;;;;;;0.30;0.30;;;;;;;;;;1835942;76;26323;-58
2022/04/30 00:13:57;;;;;;;0.20;0.20;;;;;;;;;;1866650;76;26265;-54
2022/04/30 00:16:25;;;;;;;0.10;0.10;;;;;;;;;;1851292;77;26316;-53
2022/04/30 00:18:52;;;;;;;0.20;0.20;;;;;;;;;;1815959;78;26343;-51
2022/04/30 00:21:19;;;;;;;0.17;0.17;;;;;;;;;;1840160;76;26553;-54
2022/04/30 00:23:47;;;;;;;0.35;0.30;;;;;;;;;;1845895;78;26249;-53
2022/04/30 00:26:14;;;;;;;0.28;0.28;;;;;;;;;;1845879;78;26285;-56
2022/04/30 00:28:42;;;;;;;0.20;0.20;;;;;;;;;;1843951;78;25660;-55
2022/04/30 00:31:09;;;;;;;0.10;0.10;;;;;;;;;;1852659;76;26749;-54
2022/04/30 00:33:37;;;;;;;0.10;0.10;;;;;;;;;;1870743;76;26273;-49
2022/04/30 00:36:05;;;;;;;0.30;0.30;;;;;;;;;;1835233;78;26273;-54
2022/04/30 00:38:33;;;;;;;1.15;0.25;;;;;;;;;;1846328;77;26765;-51
2022/04/30 00:41:00;;;;;;;0.20;0.20;;;;;;;;;;1845121;78;26347;-51
2022/04/30 00:43:27;;;;;;;0.20;0.20;;;;;;;;;;1866406;76;26213;-53
2022/04/30 00:45:54;;;;;;;0.10;0.10;;;;;;;;;;1862512;76;26281;-55
2022/04/30 00:48:22;;;;;;;0.20;0.20;;;;;;;;;;1846309;78;26290;-52
2022/04/30 00:50:50;;;;;;;0.20;0.20;;;;;;;;;;1846435;78;26282;-50
2022/04/30 00:53:19;;;;;;;0.10;0.10;;;;;;;;;;1847970;76;26262;-51
2022/04/30 00:55:47;;;;;;;0.10;0.10;;;;;;;;;;1871899;76;26369;-50
2022/04/30 00:58:15;;;;;;;0.17;0.17;;;;;;;;;;1871768;76;26769;-54
2022/04/30 01:00:44;;;;;;;0.10;0.10;;;;;;;;;;1847598;76;26336;-53
2022/04/30 01:03:12;;;;;;;0.20;0.20;;;;;;;;;;1815507;78;26249;-49
2022/04/30 01:05:39;;;;;;;0.20;0.20;;;;;;;;;;1838208;76;26290;-50
2022/04/30 01:08:06;;;;;;;0.28;0.28;;;;;;;;;;1846056;78;26328;-51
2022/04/30 01:10:34;;;;;;;0.28;0.28;;;;;;;;;;1844870;78;26344;-52
2022/04/30 01:13:02;;;;;;;0.17;0.17;;;;;;;;;;1844124;78;26324;-51
2022/04/30 01:15:30;;;;;;;0.10;0.10;;;;;;;;;;1843897;77;26785;-51
2022/04/30 01:17:58;;;;;;;0.15;0.15;;;;;;;;;;1870967;76;26337;-52
2022/04/30 01:20:26;;;;;;;0.20;0.20;;;;;;;;;;1868060;76;26267;-52
2022/04/30 01:23:04;;;;;;;0.28;0.23;;;;;;;;;;1841561;78;26331;-49
2022/04/30 01:25:32;;;;;;;0.10;0.10;;;;;;;;;;1825655;77;26288;-51
2022/04/30 01:28:00;;;;;;;0.20;0.20;;;;;;;;;;1828527;76;26559;-53
2022/04/30 01:30:28;;;;;;;0.20;0.20;;;;;;;;;;1843846;77;25369;-50
2022/04/30 01:38:27;;;;;;;0.20;0.20;;;;;;;;;;1842518;76;26305;-52
2022/04/30 01:40:55;;;;;;;0.33;0.25;;;;;;;;;;1842264;77;26661;-53
2022/04/30 01:43:22;;;;;;;0.20;0.20;;;;;;;;;;1842003;77;26266;-52
2022/04/30 01:45:50;;;;;;;0.10;0.10;;;;;;;;;;1829503;77;26751;-55
2022/04/30 01:48:18;;;;;;;0.13;0.13;;;;;;;;;;1811236;79;26425;-56
2022/04/30 01:50:47;;;;;;;0.20;0.20;;;;;;;;;;1854820;76;26321;-53
2022/04/30 01:53:15;;;;;;;0.10;0.10;;;;;;;;;;1858435;76;26202;-50
2022/04/30 01:55:43;;;;;;;0.20;0.20;;;;;;;;;;1843499;78;26367;-54
2022/04/30 01:58:10;;;;;;;0.10;0.10;;;;;;;;;;1843871;78;26286;-50
2022/04/30 02:00:38;;;;;;;0.20;0.20;;;;;;;;;;1807601;78;26323;-49
2022/04/30 02:03:06;;;;;;;0.20;0.20;;;;;;;;;;1847940;76;26803;-53
2022/04/30 02:05:34;;;;;;;0.42;0.13;;;;;;;;;;1842466;78;26695;-48
2022/04/30 02:08:06;;;;;;;0.30;0.30;;;;;;;;;;1839105;78;26243;-48
2022/04/30 02:10:34;;;;;;;0.25;0.20;;;;;;;;;;1837644;78;26373;-54
2022/04/30 02:13:03;;;;;;;0.35;0.30;;;;;;;;;;1856217;76;26715;-52
2022/04/30 02:15:31;;;;;;;0.10;0.10;;;;;;;;;;1833039;76;26286;-52
2022/04/30 02:17:58;;;;;;;0.20;0.20;;;;;;;;;;1844295;78;26292;-56
2022/04/30 02:20:33;;;;;;;1.87;0.20;;;;;;;;;;1830575;78;26736;-54
2022/04/30 02:23:04;;;;;;;0.20;0.20;;;;;;;;;;1842914;77;26281;-51
2022/04/30 02:25:30;;;;;;;0.25;0.20;;;;;;;;;;1825276;76;26370;-52
2022/04/30 02:27:58;;;;;;;0.47;0.25;;;;;;;;;;1811228;79;26398;-50
2022/04/30 02:30:27;;;;;;;0.20;0.20;;;;;;;;;;1816403;78;26347;-54
2022/04/30 02:32:56;;;;;;;0.10;0.10;;;;;;;;;;1843248;78;26296;-53
2022/04/30 02:35:33;;;;;;;0.20;0.20;;;;;;;;;;1841105;76;26225;-53
2022/04/30 02:37:59;;;;;;;0.30;0.30;;;;;;;;;;1836509;78;26627;-47
2022/04/30 02:40:27;;;;;;;0.20;0.20;;;;;;;;;;1844144;78;26714;-48
2022/04/30 02:42:57;;;;;;;0.20;0.20;;;;;;;;;;1843880;78;26768;-54
2022/04/30 02:45:24;;;;;;;0.20;0.20;;;;;;;;;;1843547;77;26348;-49
2022/04/30 02:47:56;;;;;;;0.93;0.20;;;;;;;;;;1852837;76;26807;-50
2022/04/30 02:50:25;;;;;;;0.20;0.20;;;;;;;;;;1839657;78;26276;-54
2022/04/30 02:52:55;;;;;;;0.80;0.33;;;;;;;;;;1833959;78;26270;-48
2022/04/30 02:55:22;;;;;;;0.20;0.20;;;;;;;;;;1842210;78;26281;-50
2022/04/30 03:00:41;;;;;;;1.95;0.20;;;;;;;;;;1841618;78;26226;-49
2022/04/30 03:03:07;;;;;;;0.37;0.20;;;;;;;;;;1836623;78;26273;-48
2022/04/30 03:05:43;;;;;;;1.00;0.40;;;;;;;;;;1838250;78;26290;-51
2022/04/30 03:08:13;;;;;;;0.23;0.23;;;;;;;;;;1838858;76;26741;-46
2022/04/30 03:10:38;;;;;;;0.20;0.20;;;;;;;;;;1839912;76;26305;-49
2022/04/30 03:13:06;;;;;;;3.75;0.35;;;;;;;;;;1839399;78;26245;-48
2022/04/30 03:15:34;;;;;;;1.55;0.30;;;;;;;;;;1842411;76;26266;-48
2022/04/30 03:23:40;;;;;;;0.20;0.20;;;;;;;;;;1836246;76;26310;-47
2022/04/30 03:26:05;;;;;;;0.20;0.20;;;;;;;;;;1837833;78;26262;-54
2022/04/30 03:28:34;;;;;;;1.75;0.30;;;;;;;;;;1838313;78;26786;-47
2022/04/30 03:31:01;;;;;;;0.30;0.30;;;;;;;;;;1838913;78;26251;-52
2022/04/30 03:33:28;;;;;;;1.02;0.30;;;;;;;;;;1838556;78;26412;-52
2022/04/30 03:35:55;;;;;;;0.20;0.20;;;;;;;;;;1834919;78;26312;-51
2022/04/30 03:38:23;;;;;;;0.30;0.30;;;;;;;;;;1836452;76;26912;-51
2022/04/30 03:40:50;;;;;;;0.30;0.30;;;;;;;;;;1838265;76;26686;-46
2022/04/30 03:43:18;;;;;;;0.30;0.30;;;;;;;;;;1838418;78;27582;-50
2022/04/30 03:45:46;;;;;;;0.20;0.20;;;;;;;;;;1836924;78;26376;-50
2022/04/30 03:48:14;;;;;;;0.53;0.20;;;;;;;;;;1838951;78;26266;-49
2022/04/30 03:50:44;;;;;;;2.65;0.28;;;;;;;;;;1834945;78;26281;-51
2022/04/30 03:53:12;;;;;;;3.02;0.40;;;;;;;;;;1838799;76;26802;-51
2022/04/30 03:55:40;;;;;;;0.20;0.20;;;;;;;;;;1838582;78;26295;-47
2022/04/30 03:58:07;;;;;;;0.20;0.20;;;;;;;;;;1839690;78;26536;-49
2022/04/30 04:00:35;;;;;;;0.20;0.20;;;;;;;;;;1835524;78;26332;-47
2022/04/30 04:03:03;;;;;;;0.30;0.30;;;;;;;;;;1839596;76;26254;-51
2022/04/30 04:05:31;;;;;;;0.30;0.30;;;;;;;;;;1839746;78;26251;-51
2022/04/30 04:07:59;;;;;;;0.30;0.30;;;;;;;;;;1838412;76;26775;-54
2022/04/30 04:10:27;;;;;;;0.20;0.20;;;;;;;;;;1840505;76;26267;-49
2022/04/30 04:17:37;;;;;;;0.20;0.20;;;;;;;;;;1838773;78;26971;-52
2022/04/30 04:18:09;;;;;;;1.47;0.30;;;;;;;;;;1840666;77;26752;-48
2022/04/30 04:20:36;;;;;;;0.28;0.23;;;;;;;;;;1842842;78;26721;-49
2022/04/30 04:23:04;;;;;;;0.62;0.37;;;;;;;;;;1842809;77;26261;-49
2022/04/30 04:28:16;;;;;;;0.30;0.25;;;;;;;;;;1838616;77;26817;-47
2022/04/30 04:30:43;;;;;;;1.15;0.40;;;;;;;;;;1840991;77;26954;-48
2022/04/30 04:33:11;;;;;;;1.15;0.30;;;;;;;;;;1837803;77;27275;-49
2022/04/30 04:35:38;;;;;;;1.57;0.30;;;;;;;;;;1839735;77;26339;-53
2022/04/30 04:38:05;;;;;;;0.60;0.30;;;;;;;;;;1836407;76;26282;-54
2022/04/30 04:40:35;;;;;;;1.02;0.40;;;;;;;;;;1841157;77;26673;-51
2022/04/30 04:43:02;;;;;;;0.25;0.25;;;;;;;;;;1839316;77;26714;-51
2022/04/30 04:45:29;;;;;;;0.37;0.30;;;;;;;;;;1839040;77;26246;-51
2022/04/30 04:47:57;;;;;;;1.12;0.35;;;;;;;;;;1839333;76;26326;-48
2022/04/30 04:50:24;;;;;;;0.30;0.30;;;;;;;;;;1843580;76;26347;-52
2022/04/30 04:52:51;;;;;;;2.55;0.30;;;;;;;;;;1839197;76;26312;-49
2022/04/30 04:55:19;;;;;;;0.50;0.50;;;;;;;;;;1840705;77;26332;-48
2022/04/30 04:57:46;;;;;;;1.62;0.60;;;;;;;;;;1837981;77;26487;-51
2022/04/30 05:00:14;;;;;;;0.75;0.40;;;;;;;;;;1842714;76;26270;-47
2022/04/30 05:02:41;;;;;;;0.30;0.30;;;;;;;;;;1839289;76;26320;-48
2022/04/30 05:05:08;;;;;;;2.70;0.30;;;;;;;;;;1839745;76;26889;-50
2022/04/30 05:07:35;;;;;;;0.30;0.30;;;;;;;;;;1840939;77;26749;-50
2022/04/30 05:10:03;;;;;;;0.20;0.20;;;;;;;;;;1840814;76;26813;-49
2022/04/30 05:12:30;;;;;;;0.25;0.25;;;;;;;;;;1839391;76;26190;-52
2022/04/30 05:14:58;;;;;;;0.68;0.45;;;;;;;;;;1835374;77;26238;-48
2022/04/30 05:17:25;;;;;;;0.65;0.30;;;;;;;;;;1839508;77;26407;-51
2022/04/30 05:19:52;;;;;;;0.30;0.30;;;;;;;;;;1838553;78;26191;-48
2022/04/30 05:22:20;;;;;;;0.30;0.30;;;;;;;;;;1842415;76;26253;-51
2022/04/30 05:24:47;;;;;;;0.30;0.30;;;;;;;;;;1835949;77;26242;-54
2022/04/30 05:27:14;;;;;;;0.68;0.30;;;;;;;;;;1835986;78;26388;-51
2022/04/30 05:29:42;;;;;;;1.65;0.37;;;;;;;;;;1836033;77;26238;-46
2022/04/30 05:32:09;;;;;;;0.37;0.37;;;;;;;;;;1839225;77;26312;-52
2022/04/30 05:34:36;;;;;;;0.53;0.30;;;;;;;;;;1838610;76;26356;-51
2022/04/30 05:37:04;;;;;;;0.40;0.40;;;;;;;;;;1837149;76;27274;-49
2022/04/30 05:39:31;;;;;;;0.47;0.40;;;;;;;;;;1838523;77;26305;-53
2022/04/30 05:41:59;;;;;;;0.40;0.30;;;;;;;;;;1838656;78;26718;-49
2022/04/30 05:44:26;;;;;;;1.25;0.40;;;;;;;;;;1839848;76;26719;-49
2022/04/30 05:46:53;;;;;;;1.65;0.30;;;;;;;;;;1837835;78;26785;-48
2022/04/30 05:49:20;;;;;;;1.95;0.68;;;;;;;;;;1839633;78;26344;-48
2022/04/30 05:51:49;;;;;;;0.30;0.30;;;;;;;;;;1838728;78;26292;-51
2022/04/30 05:54:17;;;;;;;0.30;0.30;;;;;;;;;;1837007;78;26263;-49
2022/04/30 05:56:44;;;;;;;0.30;0.30;;;;;;;;;;1840085;76;26792;-49
2022/04/30 05:59:11;;;;;;;0.90;0.40;;;;;;;;;;1839221;78;26824;-47
2022/04/30 06:01:39;;;;;;;3.00;0.40;;;;;;;;;;1839180;78;26804;-46
2022/04/30 06:04:06;;;;;;;0.88;0.40;;;;;;;;;;1839378;78;26675;-47
2022/04/30 06:06:33;;;;;;;1.65;0.65;;;;;;;;;;1839780;76;26234;-48
2022/04/30 06:09:01;;;;;;;2.17;0.33;;;;;;;;;;1838349;78;26603;-48
2022/04/30 06:11:28;;;;;;;1.15;0.40;;;;;;;;;;1839134;78;26340;-47
2022/04/30 06:13:55;;;;;;;2.25;0.50;;;;;;;;;;1835360;78;26286;-49
2022/04/30 06:16:22;;;;;;;2.77;0.37;;;;;;;;;;1839270;77;26845;-51
2022/04/30 06:18:50;;;;;;;2.27;0.50;;;;;;;;;;1841036;76;26765;-53
2022/04/30 06:21:17;;;;;;;1.17;0.50;;;;;;;;;;1840957;77;26760;-47
2022/04/30 06:23:44;;;;;;;3.20;0.50;;;;;;;;;;1840911;77;27187;-52
2022/04/30 06:26:11;;;;;;;3.02;0.45;;;;;;;;;;1838703;77;26235;-51
2022/04/30 06:28:39;;;;;;;2.83;0.50;;;;;;;;;;1842457;76;26269;-46
2022/04/30 06:31:06;;;;;;;3.92;0.60;;;;;;;;;;1843484;78;26394;-46
2022/04/30 06:33:33;;;;;;;3.70;0.50;;;;;;;;;;1842828;77;26242;-50
2022/04/30 06:36:01;;;;;;;4.70;0.80;;;;;;;;;;1843501;78;26828;-48
2022/04/30 06:38:28;;;;;;;2.58;0.50;;;;;;;;;;1842149;77;26529;-46
2022/04/30 06:40:55;;;;;;;0.60;0.60;;;;;;;;;;1831557;77;26206;-50
2022/04/30 06:43:22;;;;;;;2.05;0.47;;;;;;;;;;1841569;77;26189;-48
2022/04/30 06:45:53;;;;;;;0.55;0.55;;;;;;;;;;1843382;76;26339;-55
2022/04/30 06:48:21;;;;;;;0.65;0.40;;;;;;;;;;1840938;77;26856;-51
2022/04/30 06:50:48;;;;;;;3.77;0.70;;;;;;;;;;1841784;77;26327;-49
2022/04/30 06:58:53;;;;;;;1.02;0.30;;;;;;;;;;1842131;77;26314;-50
2022/04/30 07:03:55;;;;;;;0.57;0.50;;;;;;;;;;1841897;76;26274;-53
2022/04/30 07:06:21;;;;;;;0.40;0.40;;;;;;;;;;1838597;77;26344;-48
2022/04/30 07:08:49;;;;;;;0.50;0.50;;;;;;;;;;1838973;77;26270;-51
2022/04/30 07:11:17;;;;;;;0.42;0.40;;;;;;;;;;1840143;77;26277;-48
2022/04/30 07:13:44;;;;;;;2.75;0.60;;;;;;;;;;1843352;76;26332;-52
2022/04/30 07:16:12;;;;;;;0.70;0.37;;;;;;;;;;1837025;76;26249;-47
2022/04/30 07:18:39;;;;;;;2.85;0.45;;;;;;;;;;1839904;77;26748;-50
2022/04/30 07:21:06;;;;;;;0.57;0.50;;;;;;;;;;1836984;77;26670;-46
2022/04/30 07:23:34;;;;;;;0.40;0.40;;;;;;;;;;1840888;77;26971;-53
2022/04/30 07:26:01;;;;;;;0.80;0.50;;;;;;;;;;1842269;76;26755;-49
2022/04/30 07:28:35;;;;;;;0.42;0.20;;;;;;;;;;1838909;77;26242;-52
2022/04/30 07:30:57;;;;;;;1.50;0.47;;;;;;;;;;1839812;77;26375;-49
2022/04/30 07:33:24;;;;;;;0.40;0.40;;;;;;;;;;1841120;77;26633;-52
2022/04/30 07:35:52;;;;;;;0.50;0.50;;;;;;;;;;1839012;77;26257;-48
2022/04/30 07:38:19;;;;;;;0.50;0.30;;;;;;;;;;1841658;76;26401;-52
2022/04/30 07:40:46;;;;;;;2.30;0.50;;;;;;;;;;1841535;76;26262;-50
2022/04/30 07:43:14;;;;;;;0.85;0.35;;;;;;;;;;1840559;77;26247;-50
2022/04/30 07:45:41;;;;;;;0.50;0.47;;;;;;;;;;1841115;76;26254;-52
2022/04/30 07:48:08;;;;;;;0.45;0.45;;;;;;;;;;1841788;76;26324;-47
2022/04/30 07:50:36;;;;;;;0.47;0.47;;;;;;;;;;1839626;77;26269;-51
2022/04/30 07:53:07;;;;;;;0.90;0.40;;;;;;;;;;1838179;76;26308;-47
2022/04/30 07:55:34;;;;;;;0.53;0.40;;;;;;;;;;1839250;77;26262;-51
2022/04/30 07:58:02;;;;;;;1.42;0.40;;;;;;;;;;1839508;77;26301;-50
2022/04/30 08:00:30;;;;;;;0.72;0.47;;;;;;;;;;1837360;77;26630;-48
2022/04/30 08:02:58;;;;;;;0.50;0.50;;;;;;;;;;1840291;76;26866;-47
2022/04/30 08:05:25;;;;;;;0.37;0.37;;;;;;;;;;1838508;76;26234;-49
2022/04/30 08:07:54;;;;;;;0.45;0.40;;;;;;;;;;1841325;77;26359;-50
2022/04/30 08:10:22;;;;;;;0.85;0.40;;;;;;;;;;1840920;76;26282;-49
2022/04/30 08:12:53;;;;;;;0.60;0.60;;;;;;;;;;1840614;77;26250;-54
2022/04/30 08:15:22;;;;;;;1.95;0.60;;;;;;;;;;1835347;77;26265;-52
2022/04/30 08:17:49;;;;;;;1.10;0.50;;;;;;;;;;1833839;76;26296;-55
2022/04/30 08:20:17;;;;;;;0.30;0.30;;;;;;;;;;1837708;76;26360;-58
2022/04/30 08:22:44;;;;;;;2.20;0.47;;;;;;;;;;1846633;76;26335;-52
2022/04/30 08:25:11;;;;;;;0.45;0.40;;;;;;;;;;1844093;76;26691;-54
2022/04/30 08:27:40;;;;;;;0.68;0.50;;;;;;;;;;1836913;76;26664;-55
2022/04/30 08:30:09;;;;;;;0.85;0.47;;;;;;;;;;1838467;76;26314;-60
2022/04/30 08:32:37;;;;;;;0.68;0.40;;;;;;;;;;1841411;77;26297;-57
2022/04/30 08:35:05;;;;;;;0.30;0.30;;;;;;;;;;1837828;77;27493;-55
2022/04/30 08:37:32;;;;;;;1.05;0.42;;;;;;;;;;1835640;76;26316;-58
2022/04/30 08:39:59;;;;;;;2.00;0.40;;;;;;;;;;1835210;76;26856;-53
2022/04/30 08:42:26;;;;;;;0.42;0.42;;;;;;;;;;1838269;76;26697;-49
2022/04/30 08:44:55;;;;;;;0.40;0.40;;;;;;;;;;1837580;76;26720;-57
2022/04/30 08:47:22;;;;;;;0.33;0.30;;;;;;;;;;1835782;77;26355;-56
2022/04/30 08:49:50;;;;;;;2.15;0.40;;;;;;;;;;1841220;77;26446;-54
2022/04/30 08:52:18;;;;;;;2.98;0.45;;;;;;;;;;1838963;77;26811;-56
2022/04/30 08:54:45;;;;;;;1.32;0.35;;;;;;;;;;1838514;76;26694;-49
2022/04/30 08:57:14;;;;;;;0.50;0.30;;;;;;;;;;1843298;76;26751;-47
2022/04/30 08:59:42;;;;;;;0.50;0.37;;;;;;;;;;1842142;77;26344;-52
2022/04/30 09:02:10;;;;;;;0.37;0.37;;;;;;;;;;1841874;77;26262;-49
2022/04/30 09:04:45;;;;;;;0.40;0.40;;;;;;;;;;1841205;77;26278;-53
2022/04/30 09:07:14;;;;;;;0.30;0.30;;;;;;;;;;1837621;76;26863;-49
2022/04/30 09:09:43;;;;;;;0.30;0.30;;;;;;;;;;1838207;76;26919;-54
2022/04/30 09:12:12;;;;;;;0.30;0.30;;;;;;;;;;1841478;77;26262;-51
2022/04/30 09:14:42;;;;;;;0.62;0.30;;;;;;;;;;1841456;77;26355;-52
2022/04/30 09:17:11;;;;;;;0.28;0.28;;;;;;;;;;1842580;76;26532;-52
2022/04/30 09:19:52;;;;;;;0.62;0.20;;;;;;;;;;1843114;77;26581;-60
2022/04/30 09:22:33;;;;;;;1.52;0.30;;;;;;;;;;1841964;77;26258;-58
2022/04/30 09:25:01;;;;;;;1.02;0.33;;;;;;;;;;1842836;77;26250;-55
2022/04/30 09:27:29;;;;;;;0.53;0.20;;;;;;;;;;1828402;77;26332;-52
2022/04/30 09:29:57;;;;;;;0.30;0.30;;;;;;;;;;1842831;76;26517;-58
2022/04/30 09:32:26;;;;;;;3.72;0.40;;;;;;;;;;1838846;77;26313;-58
2022/04/30 09:37:41;;;;;;;0.35;0.35;;;;;;;;;;1841630;77;26782;-63
2022/04/30 09:40:10;;;;;;;0.30;0.30;;;;;;;;;;1838487;76;26258;-51
2022/04/30 09:42:38;;;;;;;0.20;0.20;;;;;;;;;;1842617;77;26281;-56
2022/04/30 09:45:06;;;;;;;0.40;0.20;;;;;;;;;;1838982;76;26569;-66
2022/04/30 09:47:36;;;;;;;0.17;0.17;;;;;;;;;;1839792;77;26323;-64
2022/04/30 09:55:35;;;;;;;0.30;0.30;;;;;;;;;;1840500;77;26292;-64
2022/04/30 09:58:03;;;;;;;0.20;0.20;;;;;;;;;;1841412;77;26257;-56
2022/04/30 10:00:32;;;;;;;0.20;0.20;;;;;;;;;;1841633;77;26250;-54
2022/04/30 10:03:03;;;;;;;0.10;0.10;;;;;;;;;;1840724;76;26344;-54
2022/04/30 10:05:36;;;;;;;1.25;0.20;;;;;;;;;;1843221;76;26258;-42
2022/04/30 10:08:00;;;;;;;0.30;0.30;;;;;;;;;;1840589;77;26368;-55
2022/04/30 10:10:36;;;;;;;0.13;0.13;;;;;;;;;;1843199;76;26352;-52
2022/04/30 10:13:21;;;;;;;0.30;0.30;;;;;;;;;;1838283;77;26583;-55
2022/04/30 10:15:53;;;;;;;0.23;0.23;;;;;;;;;;1838788;76;26266;-52
2022/04/30 10:18:24;;;;;;;0.98;0.30;;;;;;;;;;1841674;77;26811;-56
2022/04/30 10:21:00;;;;;;;0.30;0.30;;;;;;;;;;1841553;76;26292;-56
2022/04/30 10:23:26;;;;;;;1.20;0.30;;;;;;;;;;1840174;76;26362;-60
2022/04/30 10:25:54;;;;;;;0.23;0.23;;;;;;;;;;1842225;76;26800;-62
2022/04/30 10:28:22;;;;;;;0.90;0.30;;;;;;;;;;1836878;77;26316;-65
2022/04/30 10:31:05;;;;;;;0.20;0.20;;;;;;;;;;1836242;76;26751;-56
2022/04/30 10:33:33;;;;;;;0.40;0.40;;;;;;;;;;1840360;77;26246;-56
2022/04/30 10:36:06;;;;;;;0.20;0.20;;;;;;;;;;1840501;76;26316;-57
2022/04/30 10:38:34;;;;;;;0.20;0.20;;;;;;;;;;1842513;77;26273;-56
2022/04/30 10:41:01;;;;;;;0.25;0.25;;;;;;;;;;1842694;77;26312;-53
2022/04/30 10:43:34;;;;;;;0.20;0.20;;;;;;;;;;1842567;77;26374;-53
2022/04/30 10:46:06;;;;;;;0.80;0.10;;;;;;;;;;1842663;76;26831;-55
2022/04/30 10:48:35;;;;;;;0.65;0.57;;;;;;;;;;1844380;76;26739;-54
2022/04/30 10:51:04;;;;;;;0.82;0.20;;;;;;;;;;1840154;77;26961;-55
2022/04/30 10:53:32;;;;;;;0.10;0.10;;;;;;;;;;1843047;77;26278;-55
2022/04/30 10:56:01;;;;;;;0.25;0.25;;;;;;;;;;1841979;77;26788;-58
2022/04/30 10:58:30;;;;;;;0.20;0.20;;;;;;;;;;1843485;76;26237;-56
2022/04/30 11:00:58;;;;;;;0.30;0.30;;;;;;;;;;1843709;76;26745;-58
2022/04/30 11:03:26;;;;;;;0.60;0.20;;;;;;;;;;1837245;76;26239;-57
2022/04/30 11:05:54;;;;;;;0.30;0.30;;;;;;;;;;1840267;78;26683;-56
2022/04/30 11:08:21;;;;;;;1.98;0.30;;;;;;;;;;1839670;78;26258;-55
2022/04/30 11:10:49;;;;;;;0.25;0.20;;;;;;;;;;1841759;76;26322;-55
2022/04/30 11:13:17;;;;;;;0.20;0.20;;;;;;;;;;1837396;76;26387;-55
2022/04/30 11:15:44;;;;;;;0.30;0.30;;;;;;;;;;1843075;76;26702;-58
2022/04/30 11:18:11;;;;;;;0.65;0.35;;;;;;;;;;1847944;76;26235;-54
2022/04/30 11:20:39;;;;;;;0.30;0.30;;;;;;;;;;1833442;78;26411;-57
2022/04/30 11:23:07;;;;;;;0.28;0.28;;;;;;;;;;1838366;76;26242;-51
2022/04/30 11:25:35;;;;;;;0.30;0.30;;;;;;;;;;1826583;76;26272;-55
2022/04/30 11:28:06;;;;;;;0.20;0.20;;;;;;;;;;1840348;76;26895;-57
2022/04/30 11:30:37;;;;;;;1.07;0.17;;;;;;;;;;1839508;76;26687;-54
2022/04/30 11:33:05;;;;;;;0.20;0.20;;;;;;;;;;1838277;76;26254;-55
2022/04/30 11:35:33;;;;;;;0.20;0.20;;;;;;;;;;1832988;76;27023;-58
2022/04/30 11:38:00;;;;;;;1.17;0.40;;;;;;;;;;1830789;77;26254;-58
2022/04/30 11:40:27;;;;;;;0.20;0.20;;;;;;;;;;1841130;77;26348;-57
2022/04/30 11:42:56;;;;;;;0.40;0.40;;;;;;;;;;1839887;77;26278;-55
2022/04/30 11:45:25;;;;;;;0.20;0.20;;;;;;;;;;1858757;76;26245;-57
2022/04/30 11:47:54;;;;;;;0.20;0.20;;;;;;;;;;1838179;77;26212;-56
2022/04/30 11:50:22;;;;;;;0.53;0.30;;;;;;;;;;1833181;76;26725;-54
2022/04/30 11:52:50;;;;;;;1.30;0.20;;;;;;;;;;1841259;76;26363;-54
2022/04/30 11:55:20;;;;;;;0.23;0.23;;;;;;;;;;1841067;77;26620;-58
2022/04/30 11:57:47;;;;;;;1.00;0.40;;;;;;;;;;1826082;77;26395;-58
2022/04/30 12:00:21;;;;;;;0.20;0.20;;;;;;;;;;1836882;77;26776;-53
2022/04/30 12:02:47;;;;;;;0.93;0.20;;;;;;;;;;1804561;78;26339;-55
2022/04/30 12:05:19;;;;;;;2.30;0.42;;;;;;;;;;1841321;76;26343;-53
2022/04/30 12:07:45;;;;;;;1.57;0.40;;;;;;;;;;1842495;76;26531;-58
2022/04/30 12:10:16;;;;;;;0.20;0.20;;;;;;;;;;1838674;77;26768;-58
2022/04/30 12:12:43;;;;;;;2.83;0.30;;;;;;;;;;1838945;77;26352;-56
2022/04/30 12:15:18;;;;;;;0.30;0.30;;;;;;;;;;1837283;76;26568;-56
2022/04/30 12:17:46;;;;;;;0.40;0.33;;;;;;;;;;1838683;76;26280;-59
2022/04/30 12:25:48;;;;;;;0.30;0.30;;;;;;;;;;1831824;77;26461;-56
2022/04/30 12:28:15;;;;;;;0.62;0.33;;;;;;;;;;1840100;76;26345;-54
2022/04/30 12:31:10;;;;;;;0.62;0.40;;;;;;;;;;1845698;76;26721;-58
2022/04/30 12:36:28;;;;;;;1.45;0.50;;;;;;;;;;1835991;76;26352;-58
2022/04/30 12:38:56;;;;;;;0.42;0.42;;;;;;;;;;1836040;77;26261;-56
2022/04/30 12:41:23;;;;;;;0.35;0.35;;;;;;;;;;1842799;77;26245;-57
2022/04/30 12:43:52;;;;;;;1.35;0.40;;;;;;;;;;1841342;77;26705;-53
2022/04/30 12:46:21;;;;;;;1.27;0.25;;;;;;;;;;1842080;76;26741;-55
2022/04/30 12:48:49;;;;;;;0.30;0.30;;;;;;;;;;1843028;77;26836;-54
2022/04/30 12:51:19;;;;;;;0.75;0.50;;;;;;;;;;1842603;78;26742;-53
2022/04/30 12:53:46;;;;;;;0.90;0.30;;;;;;;;;;1840915;78;26648;-50
2022/04/30 12:56:13;;;;;;;0.30;0.30;;;;;;;;;;1835783;76;26297;-58
2022/04/30 12:58:40;;;;;;;0.30;0.30;;;;;;;;;;1831689;77;26724;-54
2022/04/30 13:01:08;;;;;;;1.30;0.40;;;;;;;;;;1835760;77;26246;-56
2022/04/30 13:03:37;;;;;;;3.10;0.40;;;;;;;;;;1835239;77;27400;-58
2022/04/30 13:06:04;;;;;;;1.05;0.33;;;;;;;;;;1836253;77;26841;-59
2022/04/30 13:13:51;;;;;;;0.20;0.20;;;;;;;;;;1836117;77;26226;-57
2022/04/30 13:16:19;;;;;;;0.80;0.30;;;;;;;;;;1833851;76;26315;-53
2022/04/30 13:18:52;;;;;;;0.33;0.33;;;;;;;;;;1838694;76;26305;-58
2022/04/30 13:23:58;;;;;;;2.20;0.50;;;;;;;;;;1707915;82;26386;-58
2022/04/30 13:26:26;;;;;;;0.50;0.50;;;;;;;;;;1839537;77;26242;-57
2022/04/30 13:28:54;;;;;;;0.30;0.30;;;;;;;;;;1844996;76;26367;-54
2022/04/30 13:31:22;;;;;;;0.37;0.37;;;;;;;;;;1843677;76;26823;-57
2022/04/30 13:33:49;;;;;;;1.47;0.40;;;;;;;;;;1840772;78;26265;-53
2022/04/30 13:36:17;;;;;;;0.30;0.30;;;;;;;;;;1845945;77;26235;-55
2022/04/30 13:38:45;;;;;;;0.30;0.30;;;;;;;;;;1844043;77;26493;-56
2022/04/30 13:41:13;;;;;;;0.30;0.30;;;;;;;;;;1843294;77;27635;-56
2022/04/30 13:43:40;;;;;;;0.30;0.30;;;;;;;;;;1843071;76;26683;-55
2022/04/30 13:46:08;;;;;;;0.30;0.30;;;;;;;;;;1842325;76;26262;-58
2022/04/30 13:48:36;;;;;;;0.30;0.30;;;;;;;;;;1837248;77;26754;-57
2022/04/30 13:51:04;;;;;;;0.40;0.40;;;;;;;;;;1842994;76;26335;-59
2022/04/30 13:53:32;;;;;;;0.30;0.30;;;;;;;;;;1837948;76;26346;-56
2022/04/30 13:55:59;;;;;;;0.30;0.30;;;;;;;;;;1838363;77;26194;-56
2022/04/30 13:58:26;;;;;;;0.42;0.30;;;;;;;;;;1840659;78;26249;-55
2022/04/30 14:00:54;;;;;;;0.30;0.30;;;;;;;;;;1836030;78;26191;-55
2022/04/30 14:03:21;;;;;;;0.42;0.42;;;;;;;;;;1840192;78;27472;-54
2022/04/30 14:05:48;;;;;;;0.50;0.50;;;;;;;;;;1844057;76;26551;-57
2022/04/30 14:08:19;;;;;;;0.57;0.50;;;;;;;;;;1843333;78;26375;-57
2022/04/30 14:10:46;;;;;;;0.40;0.40;;;;;;;;;;1843206;76;26551;-56
2022/04/30 14:15:59;;;;;;;0.40;0.40;;;;;;;;;;1859324;76;26512;-53
2022/04/30 14:18:27;;;;;;;0.40;0.40;;;;;;;;;;1845352;76;26760;-54
2022/04/30 14:20:54;;;;;;;0.28;0.28;;;;;;;;;;1843302;78;26710;-55
2022/04/30 14:23:22;;;;;;;0.30;0.30;;;;;;;;;;1842924;76;26383;-56
2022/04/30 14:25:49;;;;;;;0.40;0.40;;;;;;;;;;1832940;76;26591;-57
2022/04/30 14:28:19;;;;;;;0.30;0.30;;;;;;;;;;1837919;76;26265;-53
2022/04/30 14:30:46;;;;;;;0.30;0.30;;;;;;;;;;1842868;76;26277;-56
2022/04/30 14:33:14;;;;;;;0.30;0.30;;;;;;;;;;1840382;77;26662;-57
2022/04/30 14:35:42;;;;;;;0.30;0.30;;;;;;;;;;1837599;77;26218;-53
2022/04/30 14:38:11;;;;;;;1.05;0.60;;;;;;;;;;1833301;76;26551;-53
2022/04/30 14:40:40;;;;;;;0.35;0.35;;;;;;;;;;1837646;76;26319;-44
2022/04/30 14:43:08;;;;;;;2.72;0.40;;;;;;;;;;1833531;77;26268;-48
2022/04/30 14:45:36;;;;;;;0.37;0.37;;;;;;;;;;1824235;76;26257;-44
2022/04/30 14:48:04;;;;;;;2.60;0.50;;;;;;;;;;1832739;77;26690;-46
2022/04/30 14:50:31;;;;;;;0.42;0.42;;;;;;;;;;1842424;76;26301;-42
2022/04/30 14:52:59;;;;;;;0.60;0.40;;;;;;;;;;1842806;77;26264;-44
2022/04/30 14:55:28;;;;;;;0.30;0.30;;;;;;;;;;1841808;77;26258;-44
2022/04/30 14:57:56;;;;;;;0.40;0.40;;;;;;;;;;1830440;77;26307;-47
2022/04/30 15:00:24;;;;;;;0.30;0.30;;;;;;;;;;1839337;77;26235;-51
2022/04/30 15:02:51;;;;;;;1.37;0.40;;;;;;;;;;1845651;76;26262;-44
2022/04/30 15:05:19;;;;;;;0.40;0.40;;;;;;;;;;1806488;79;26261;-47
2022/04/30 15:07:47;;;;;;;0.55;0.50;;;;;;;;;;1836818;77;26286;-49
2022/04/30 15:10:15;;;;;;;0.42;0.42;;;;;;;;;;1823283;77;26804;-49
2022/04/30 15:12:42;;;;;;;0.42;0.42;;;;;;;;;;1841763;76;26249;-46
2022/04/30 15:15:11;;;;;;;1.42;0.42;;;;;;;;;;1835828;77;26281;-43
2022/04/30 15:17:38;;;;;;;1.40;0.40;;;;;;;;;;1816088;77;26311;-47
2022/04/30 15:20:06;;;;;;;4.15;0.60;;;;;;;;;;1832947;77;26266;-46
2022/04/30 15:22:34;;;;;;;0.50;0.50;;;;;;;;;;1820945;76;26293;-43
2022/04/30 15:25:02;;;;;;;1.05;0.40;;;;;;;;;;1836051;77;26330;-48
2022/04/30 15:27:29;;;;;;;0.50;0.50;;;;;;;;;;1837872;76;26271;-48
2022/04/30 15:29:56;;;;;;;0.42;0.42;;;;;;;;;;1835672;76;26278;-52
2022/04/30 15:32:24;;;;;;;0.30;0.30;;;;;;;;;;1828465;77;26341;-49
2022/04/30 15:34:51;;;;;;;0.30;0.30;;;;;;;;;;1835856;76;26871;-47
2022/04/30 15:37:22;;;;;;;0.40;0.40;;;;;;;;;;1824779;76;26381;-46
2022/04/30 15:39:49;;;;;;;0.40;0.40;;;;;;;;;;1834998;76;27715;-45
2022/04/30 15:42:16;;;;;;;0.47;0.47;;;;;;;;;;1833979;78;27214;-47
2022/04/30 15:44:43;;;;;;;0.40;0.40;;;;;;;;;;1820136;78;26346;-44